Detall de PIREP

Printer-friendly versionPDF version

[2013/03/31 07:29:00]
Flight IATA:CT1004
Pilot Number:012
Company ICAO:CAT
Aircraft Type:B753/E
PAX:243
Departing Airport: LPAZ
Destination Airport: LEBL
Alternate Airport:LEPA
Online: VATSIM
Route:BEKUN 3820N KOMUT DCT UREDI UN870 PONEN UT600 CASPE
Flight Level:F340
No Slew and time accel
No pause
Crash detect
Detect pilot in Cockpit between each 30 and 45 minutes
07:29 Zero fuel Weight: 198205 Lbs, Fuel Weight: 31108 Lbs
07:29 VATSIM:LPAZ 310700Z 28018KT 9999 FEW018 14/11 Q1009
07:29 VATSIM:LEBL 310700Z 36005KT 310V050 9999 FEW025 12/05 Q1007 NOSIG
07:29 VOICE CATALONIAN / EASTER CHARTER
07:32 Parking Brakes off
07:37 Take-off
07:37 Take off Weight: 228187 Lbs
07:37 Wind: 292º @ 020 Knots Heading: 347º
07:37 POS N36º 58´ 30´´ W025º 10´ 17´´
07:37 Gear Up: 193 Knots
07:37 Flaps:2 at 194 Knots
07:37 Flaps:1 at 223 Knots
07:37 Flaps:0 at 226 Knots
07:52 Wind:261º@159 Knots Heading: 050º Ground Speed: 609 Knots Altitude 32627 ft
07:52 TOC
07:52 Fuel Weight: 25261 Lb
08:07 Wind:266º@104 Knots Heading: 090º Ground Speed: 566 Knots Altitude 33848 ft
08:22 Wind:271º@098 Knots Heading: 089º Ground Speed: 570 Knots Altitude 33851 ft
08:37 Wind:278º@117 Knots Heading: 065º Ground Speed: 568 Knots Altitude 33851 ft
08:52 Wind:276º@120 Knots Heading: 068º Ground Speed: 575 Knots Altitude 33848 ft
09:07 Wind:279º@119 Knots Heading: 070º Ground Speed: 573 Knots Altitude 33822 ft
09:22 Wind:283º@118 Knots Heading: 058º Ground Speed: 555 Knots Altitude 33894 ft
09:37 Wind:290º@118 Knots Heading: 067º Ground Speed: 560 Knots Altitude 33897 ft
09:48 TOD
09:48 Fuel Weight: 9764 Lb
09:52 Wind:300º@044 Knots Heading: 081º Ground Speed: 450 Knots Altitude 24317 ft
10:05 Flaps:1 at 240 Knots
10:06 Flaps:2 at 219 Knots
10:07 Wind:337º@004 Knots Heading: 178º Ground Speed: 218 Knots Altitude 2296 ft
10:07 Flaps:3 at 186 Knots
10:07 Gear Down: 172 Knots
10:07 Flaps:4 at 171 Knots
10:08 Flaps:5 at 164 Knots
10:08 Flaps:6 at 162 Knots
10:11 TouchDown:Rate -398 ft/min Speed: 136 Knots
10:11 Flaps:4 at 90 Knots
10:11 Flaps:0 at 81 Knots
10:11 VATSIM:LEBL 311000Z 19006KT 9999 FEW025 15/05 Q1007 NOSIG
10:11 Land
10:11 Wind:343º@006 Knots
10:11 Heading: 248º
10:11 Flight Duration: 02:34
10:11 Landing Weight: 206081 Lbs
10:11 POS N41º 17´ 53´´ E002º 04´ 55´´
10:13 Parking brakes on
10:13 Block to Block Duration: 02:41
10:13 Final Fuel: 7724 Lbls
10:13 Spent Fuel: 23384 Lbls
10:13 Flight Length: 1355 NM
10:13 TOD Land Length: 128 NM

Exportar CSV

Powered by Drupal - Modified by Danger4k